sensor_id;sensor_type;location;lat;lon;timestamp;pressure;altitude;pressure_sealevel;temperature;humidity
64827;BME280;51265;53.972;12.286;2022-11-24T00:00:31;99892.97;;;1.92;100.00
64827;BME280;51265;53.972;12.286;2022-11-24T00:02:57;99903.34;;;2.00;100.00
64827;BME280;51265;53.972;12.286;2022-11-24T00:05:23;99901.69;;;1.99;100.00
64827;BME280;51265;53.972;12.286;2022-11-24T00:07:48;99906.63;;;2.03;100.00
64827;BME280;51265;53.972;12.286;2022-11-24T00:10:14;99907.47;;;2.08;100.00
64827;BME280;51265;53.972;12.286;2022-11-24T00:12:41;99909.94;;;2.10;100.00
64827;BME280;51265;53.972;12.286;2022-11-24T00:15:07;99908.06;;;2.15;100.00
64827;BME280;51265;53.972;12.286;2022-11-24T00:17:33;99913.22;;;2.12;100.00
64827;BME280;51265;53.972;12.286;2022-11-24T00:19:58;99916.50;;;2.14;100.00
64827;BME280;51265;53.972;12.286;2022-11-24T00:22:24;99920.34;;;2.18;100.00
64827;BME280;51265;53.972;12.286;2022-11-24T00:24:50;99910.00;;;2.20;100.00
64827;BME280;51265;53.972;12.286;2022-11-24T00:27:16;99923.31;;;2.21;100.00
64827;BME280;51265;53.972;12.286;2022-11-24T00:29:41;99918.19;;;2.25;100.00
64827;BME280;51265;53.972;12.286;2022-11-24T00:32:07;99919.84;;;2.26;100.00
64827;BME280;51265;53.972;12.286;2022-11-24T00:34:33;99920.91;;;2.25;100.00
64827;BME280;51265;53.972;12.286;2022-11-24T00:36:59;99926.41;;;2.30;100.00
64827;BME280;51265;53.972;12.286;2022-11-24T00:39:25;99929.66;;;2.32;100.00
64827;BME280;51265;53.972;12.286;2022-11-24T00:41:51;99929.94;;;2.31;100.00
64827;BME280;51265;53.972;12.286;2022-11-24T00:44:17;99925.34;;;2.36;100.00
64827;BME280;51265;53.972;12.286;2022-11-24T00:46:42;99930.78;;;2.36;100.00
64827;BME280;51265;53.972;12.286;2022-11-24T00:49:08;99928.56;;;2.33;100.00
64827;BME280;51265;53.972;12.286;2022-11-24T00:51:34;99933.50;;;2.36;100.00
64827;BME280;51265;53.972;12.286;2022-11-24T00:54:01;99935.69;;;2.39;100.00
64827;BME280;51265;53.972;12.286;2022-11-24T00:56:28;99932.44;;;2.42;100.00
64827;BME280;51265;53.972;12.286;2022-11-24T00:58:54;99934.06;;;2.38;100.00
64827;BME280;51265;53.972;12.286;2022-11-24T01:01:25;99932.94;;;2.34;100.00
64827;BME280;51265;53.972;12.286;2022-11-24T01:03:52;99928.63;;;2.38;100.00
64827;BME280;51265;53.972;12.286;2022-11-24T01:06:21;99929.16;;;2.35;100.00
64827;BME280;51265;53.972;12.286;2022-11-24T01:08:47;99934.59;;;2.40;100.00
64827;BME280;51265;53.972;12.286;2022-11-24T01:13:40;99933.53;;;2.41;100.00
64827;BME280;51265;53.972;12.286;2022-11-24T01:16:25;99943.31;;;2.42;100.00
64827;BME280;51265;53.972;12.286;2022-11-24T01:18:51;99946.09;;;2.47;100.00
64827;BME280;51265;53.972;12.286;2022-11-24T01:21:18;99947.13;;;2.46;100.00
64827;BME280;51265;53.972;12.286;2022-11-24T01:23:44;99947.69;;;2.43;100.00
64827;BME280;51265;53.972;12.286;2022-11-24T01:26:14;99948.78;;;2.47;100.00
64827;BME280;51265;53.972;12.286;2022-11-24T01:28:40;99948.22;;;2.45;100.00
64827;BME280;51265;53.972;12.286;2022-11-24T01:31:06;99938.44;;;2.44;100.00
64827;BME280;51265;53.972;12.286;2022-11-24T01:33:34;99948.78;;;2.47;100.00
64827;BME280;51265;53.972;12.286;2022-11-24T01:36:00;99948.25;;;2.50;100.00
64827;BME280;51265;53.972;12.286;2022-11-24T01:38:26;99949.09;;;2.51;100.00
64827;BME280;51265;53.972;12.286;2022-11-24T01:41:01;99954.75;;;2.44;100.00
64827;BME280;51265;53.972;12.286;2022-11-24T01:43:50;99953.16;;;2.48;100.00
64827;BME280;51265;53.972;12.286;2022-11-24T01:46:28;99943.91;;;2.49;100.00
64827;BME280;51265;53.972;12.286;2022-11-24T01:49:03;99940.06;;;2.45;100.00
64827;BME280;51265;53.972;12.286;2022-11-24T01:51:37;99940.06;;;2.45;100.00
64827;BME280;51265;53.972;12.286;2022-11-24T01:54:11;99941.69;;;2.46;100.00
64827;BME280;51265;53.972;12.286;2022-11-24T01:56:41;99943.31;;;2.42;100.00
64827;BME280;51265;53.972;12.286;2022-11-24T01:59:12;99947.13;;;2.46;100.00
64827;BME280;51265;53.972;12.286;2022-11-24T02:01:39;99954.75;;;2.44;100.00
64827;BME280;51265;53.972;12.286;2022-11-24T02:04:09;99961.25;;;2.38;100.00
64827;BME280;51265;53.972;12.286;2022-11-24T02:06:37;99964.00;;;2.43;100.00
64827;BME280;51265;53.972;12.286;2022-11-24T02:09:24;99963.59;;;2.30;100.00
64827;BME280;51265;53.972;12.286;2022-11-24T02:11:53;99967.22;;;2.40;100.00
64827;BME280;51265;53.972;12.286;2022-11-24T02:14:20;99966.13;;;2.41;100.00
64827;BME280;51265;53.972;12.286;2022-11-24T02:16:49;99976.97;;;2.36;100.00
64827;BME280;51265;53.972;12.286;2022-11-24T02:19:25;99968.28;;;2.34;100.00
64827;BME280;51265;53.972;12.286;2022-11-24T02:21:54;99973.97;;;2.33;100.00
64827;BME280;51265;53.972;12.286;2022-11-24T02:24:37;99970.38;;;2.27;100.00
64827;BME280;51265;53.972;12.286;2022-11-24T02:27:05;99982.06;;;2.28;100.00
64827;BME280;51265;53.972;12.286;2022-11-24T02:29:31;99984.75;;;2.22;100.00
64827;BME280;51265;53.972;12.286;2022-11-24T02:32:00;99984.19;;;2.20;100.00
64827;BME280;51265;53.972;12.286;2022-11-24T02:34:28;99985.53;;;2.18;100.00
64827;BME280;51265;53.972;12.286;2022-11-24T02:41:06;99996.94;;;2.20;100.00
64827;BME280;51265;53.972;12.286;2022-11-24T02:43:38;99991.50;;;2.20;100.00
64827;BME280;51265;53.972;12.286;2022-11-24T02:46:06;99998.84;;;2.19;100.00
64827;BME280;51265;53.972;12.286;2022-11-24T02:48:33;99999.13;;;2.18;100.00
64827;BME280;51265;53.972;12.286;2022-11-24T02:50:59;100002.34;;;2.15;100.00
64827;BME280;51265;53.972;12.286;2022-11-24T02:53:25;99999.91;;;2.13;100.00
64827;BME280;51265;53.972;12.286;2022-11-24T02:55:51;99996.88;;;2.10;100.00
64827;BME280;51265;53.972;12.286;2022-11-24T02:58:17;99998.00;;;2.14;100.00
64827;BME280;51265;53.972;12.286;2022-11-24T03:00:43;99994.69;;;2.12;100.00
64827;BME280;51265;53.972;12.286;2022-11-24T03:03:09;100002.81;;;2.07;100.00
64827;BME280;51265;53.972;12.286;2022-11-24T03:05:35;100006.94;;;2.09;100.00
64827;BME280;51265;53.972;12.286;2022-11-24T03:08:00;100004.75;;;2.11;100.00
64827;BME280;51265;53.972;12.286;2022-11-24T03:10:26;100001.78;;;2.13;100.00
64827;BME280;51265;53.972;12.286;2022-11-24T03:12:54;100005.56;;;2.12;100.00
64827;BME280;51265;53.972;12.286;2022-11-24T03:15:20;100008.31;;;2.17;100.00
64827;BME280;51265;53.972;12.286;2022-11-24T03:17:46;100006.16;;;2.14;100.00
64827;BME280;51265;53.972;12.286;2022-11-24T03:20:12;100009.38;;;2.11;100.00
64827;BME280;51265;53.972;12.286;2022-11-24T03:22:38;100013.09;;;2.05;100.00
64827;BME280;51265;53.972;12.286;2022-11-24T03:25:04;100014.50;;;2.07;100.00
64827;BME280;51265;53.972;12.286;2022-11-24T03:27:30;100016.34;;;2.02;100.00
64827;BME280;51265;53.972;12.286;2022-11-24T03:29:57;100015.78;;;1.99;100.00
64827;BME280;51265;53.972;12.286;2022-11-24T03:32:22;100014.69;;;2.00;100.00
64827;BME280;51265;53.972;12.286;2022-11-24T03:34:48;100015.22;;;1.97;100.00
64827;BME280;51265;53.972;12.286;2022-11-24T03:37:14;100020.66;;;1.97;100.00
64827;BME280;51265;53.972;12.286;2022-11-24T03:39:40;100021.47;;;1.98;100.00
64827;BME280;51265;53.972;12.286;2022-11-24T03:42:06;100011.94;;;1.95;100.00
64827;BME280;51265;53.972;12.286;2022-11-24T03:44:32;100017.38;;;1.95;100.00
64827;BME280;51265;53.972;12.286;2022-11-24T03:46:58;100014.59;;;1.90;100.00
64827;BME280;51265;53.972;12.286;2022-11-24T03:49:23;100014.56;;;1.85;100.00
64827;BME280;51265;53.972;12.286;2022-11-24T03:51:49;100009.75;;;1.92;100.00
64827;BME280;51265;53.972;12.286;2022-11-24T03:54:15;100009.19;;;1.90;100.00
64827;BME280;51265;53.972;12.286;2022-11-24T03:56:41;100008.56;;;1.83;100.00
64827;BME280;51265;53.972;12.286;2022-11-24T03:59:07;100010.72;;;1.81;100.00
64827;BME280;51265;53.972;12.286;2022-11-24T04:01:33;100016.78;;;1.88;100.00
64827;BME280;51265;53.972;12.286;2022-11-24T04:03:59;100019.19;;;1.85;100.00
64827;BME280;51265;53.972;12.286;2022-11-24T04:06:25;100017.78;;;1.82;100.00
64827;BME280;51265;53.972;12.286;2022-11-24T04:08:51;100034.06;;;1.82;100.00
64827;BME280;51265;53.972;12.286;2022-11-24T04:11:17;100040.00;;;1.79;100.00
64827;BME280;51265;53.972;12.286;2022-11-24T04:14:08;100046.06;;;1.86;100.00
64827;BME280;51265;53.972;12.286;2022-11-24T04:16:35;100054.47;;;1.85;100.00
64827;BME280;51265;53.972;12.286;2022-11-24T04:19:01;100048.72;;;1.81;100.00
64827;BME280;51265;53.972;12.286;2022-11-24T04:21:27;100058.78;;;1.81;100.00
64827;BME280;51265;53.972;12.286;2022-11-24T04:23:52;100061.72;;;1.79;100.00
64827;BME280;51265;53.972;12.286;2022-11-24T04:26:18;100057.97;;;1.80;100.00
64827;BME280;51265;53.972;12.286;2022-11-24T04:28:44;100060.69;;;1.80;100.00
64827;BME280;51265;53.972;12.286;2022-11-24T04:31:10;100056.81;;;1.76;100.00
64827;BME280;51265;53.972;12.286;2022-11-24T04:33:36;100069.81;;;1.74;100.00
64827;BME280;51265;53.972;12.286;2022-11-24T04:36:02;100068.19;;;1.73;100.00
64827;BME280;51265;53.972;12.286;2022-11-24T04:38:27;100079.88;;;1.73;100.00
64827;BME280;51265;53.972;12.286;2022-11-24T04:40:53;100075.25;;;1.74;100.00
64827;BME280;51265;53.972;12.286;2022-11-24T04:43:19;100081.50;;;1.74;100.00
64827;BME280;51265;53.972;12.286;2022-11-24T04:45:46;100080.19;;;1.77;100.00
64827;BME280;51265;53.972;12.286;2022-11-24T04:48:12;100086.75;;;1.81;100.00
64827;BME280;51265;53.972;12.286;2022-11-24T04:50:38;100097.09;;;1.84;100.00
64827;BME280;51265;53.972;12.286;2022-11-24T04:53:04;100092.72;;;1.83;100.00
64827;BME280;51265;53.972;12.286;2022-11-24T04:55:30;100096.19;;;2.00;100.00
64827;BME280;51265;53.972;12.286;2022-11-24T04:57:56;100103.00;;;2.03;100.00
64827;BME280;51265;53.972;12.286;2022-11-24T05:00:21;100100.66;;;2.12;100.00
64827;BME280;51265;53.972;12.286;2022-11-24T05:02:47;100111.53;;;2.12;100.00
64827;BME280;51265;53.972;12.286;2022-11-24T05:05:13;100110.44;;;2.13;100.00
64827;BME280;51265;53.972;12.286;2022-11-24T05:07:39;100107.72;;;2.13;100.00
64827;BME280;51265;53.972;12.286;2022-11-24T05:10:05;100099.06;;;2.16;100.00
64827;BME280;51265;53.972;12.286;2022-11-24T05:12:56;100108.84;;;2.17;100.00
64827;BME280;51265;53.972;12.286;2022-11-24T05:15:24;100108.56;;;2.13;100.00
64827;BME280;51265;53.972;12.286;2022-11-24T05:17:50;100105.53;;;2.10;100.00
64827;BME280;51265;53.972;12.286;2022-11-24T05:20:16;100097.31;;;2.05;100.00
64827;BME280;51265;53.972;12.286;2022-11-24T05:22:43;100103.19;;;1.96;100.00
64827;BME280;51265;53.972;12.286;2022-11-24T05:25:09;100105.41;;;1.99;100.00
64827;BME280;51265;53.972;12.286;2022-11-24T05:27:35;100097.72;;;1.91;100.00
64827;BME280;51265;53.972;12.286;2022-11-24T05:30:01;100106.19;;;1.95;100.00
64827;BME280;51265;53.972;12.286;2022-11-24T05:32:27;100109.22;;;1.98;100.00
64827;BME280;51265;53.972;12.286;2022-11-24T05:34:53;100110.34;;;2.03;100.00
64827;BME280;51265;53.972;12.286;2022-11-24T05:37:20;100112.59;;;2.11;100.00
64827;BME280;51265;53.972;12.286;2022-11-24T05:39:46;100124.09;;;2.18;100.00
64827;BME280;51265;53.972;12.286;2022-11-24T05:42:12;100118.66;;;2.18;100.00
64827;BME280;51265;53.972;12.286;2022-11-24T05:44:57;100119.72;;;2.17;100.00
64827;BME280;51265;53.972;12.286;2022-11-24T05:47:22;100125.47;;;2.20;100.00
64827;BME280;51265;53.972;12.286;2022-11-24T05:49:48;100115.41;;;2.21;100.00
64827;BME280;51265;53.972;12.286;2022-11-24T05:52:14;100117.25;;;2.15;100.00
64827;BME280;51265;53.972;12.286;2022-11-24T05:54:40;100116.91;;;2.07;100.00
64827;BME280;51265;53.972;12.286;2022-11-24T05:57:07;100112.03;;;2.09;100.00
64827;BME280;51265;53.972;12.286;2022-11-24T05:59:32;100120.84;;;2.21;100.00
64827;BME280;51265;53.972;12.286;2022-11-24T06:01:58;100117.63;;;2.24;100.00
64827;BME280;51265;53.972;12.286;2022-11-24T06:04:24;100117.06;;;2.22;100.00
64827;BME280;51265;53.972;12.286;2022-11-24T06:06:50;100112.91;;;2.14;100.00
64827;BME280;51265;53.972;12.286;2022-11-24T06:09:16;100118.09;;;2.16;100.00
64827;BME280;51265;53.972;12.286;2022-11-24T06:11:42;100120.44;;;2.07;100.00
64827;BME280;51265;53.972;12.286;2022-11-24T06:14:09;100114.13;;;2.02;100.00
64827;BME280;51265;53.972;12.286;2022-11-24T06:16:35;100111.41;;;2.02;100.00
64827;BME280;51265;53.972;12.286;2022-11-24T06:19:01;100116.59;;;2.03;100.00
64827;BME280;51265;53.972;12.286;2022-11-24T06:21:27;100121.25;;;2.08;100.00
64827;BME280;51265;53.972;12.286;2022-11-24T06:23:52;100128.78;;;2.00;100.00
64827;BME280;51265;53.972;12.286;2022-11-24T06:26:18;100130.22;;;2.08;100.00
64827;BME280;51265;53.972;12.286;2022-11-24T06:28:44;100133.25;;;2.12;100.00
64827;BME280;51265;53.972;12.286;2022-11-24T06:31:10;100152.25;;;2.12;100.00
64827;BME280;51265;53.972;12.286;2022-11-24T06:33:37;100147.28;;;2.04;100.00
64827;BME280;51265;53.972;12.286;2022-11-24T06:36:07;100155.56;;;2.14;100.00
64827;BME280;51265;53.972;12.286;2022-11-24T06:38:35;100164.28;;;2.16;100.00
64827;BME280;51265;53.972;12.286;2022-11-24T06:41:03;100162.31;;;2.11;100.00
64827;BME280;51265;53.972;12.286;2022-11-24T06:43:31;100163.78;;;2.19;100.00
64827;BME280;51265;53.972;12.286;2022-11-24T06:45:57;100168.63;;;2.17;100.00
64827;BME280;51265;53.972;12.286;2022-11-24T06:48:24;100161.59;;;2.21;100.00
64827;BME280;51265;53.972;12.286;2022-11-24T06:50:50;100162.13;;;2.18;100.00
64827;BME280;51265;53.972;12.286;2022-11-24T06:53:16;100161.00;;;2.14;100.00
64827;BME280;51265;53.972;12.286;2022-11-24T06:55:43;100155.56;;;2.14;100.00
64827;BME280;51265;53.972;12.286;2022-11-24T06:58:09;100163.78;;;2.19;100.00
64827;BME280;51265;53.972;12.286;2022-11-24T07:00:36;100162.13;;;2.18;100.00
64827;BME280;51265;53.972;12.286;2022-11-24T07:03:02;100163.19;;;2.17;100.00
64827;BME280;51265;53.972;12.286;2022-11-24T07:05:28;100163.13;;;2.12;100.00
64827;BME280;51265;53.972;12.286;2022-11-24T07:07:54;100169.59;;;2.06;100.00
64827;BME280;51265;53.972;12.286;2022-11-24T07:10:20;100169.06;;;2.09;100.00
64827;BME280;51265;53.972;12.286;2022-11-24T07:12:46;100174.31;;;2.15;100.00
64827;BME280;51265;53.972;12.286;2022-11-24T07:15:12;100174.81;;;2.12;100.00
64827;BME280;51265;53.972;12.286;2022-11-24T07:17:39;100192.97;;;2.07;100.00
64827;BME280;51265;53.972;12.286;2022-11-24T07:20:07;100193.47;;;2.04;100.00
64827;BME280;51265;53.972;12.286;2022-11-24T07:22:33;100192.47;;;2.10;100.00
64827;BME280;51265;53.972;12.286;2022-11-24T07:24:59;100192.91;;;2.23;100.00
64827;BME280;51265;53.972;12.286;2022-11-24T07:27:26;100193.22;;;2.27;100.00
64827;BME280;51265;53.972;12.286;2022-11-24T07:29:52;100200.22;;;2.23;100.00
64827;BME280;51265;53.972;12.286;2022-11-24T07:32:18;100203.75;;;2.23;100.00
64827;BME280;51265;53.972;12.286;2022-11-24T07:34:44;100192.75;;;2.35;100.00
64827;BME280;51265;53.972;12.286;2022-11-24T07:37:09;100190.84;;;2.36;100.00
64827;BME280;51265;53.972;12.286;2022-11-24T07:39:35;100202.59;;;2.41;100.00
64827;BME280;51265;53.972;12.286;2022-11-24T07:42:01;100208.28;;;2.40;100.00
64827;BME280;51265;53.972;12.286;2022-11-24T07:44:29;100218.41;;;2.44;100.00
64827;BME280;51265;53.972;12.286;2022-11-24T07:46:55;100210.78;;;2.46;100.00
64827;BME280;51265;53.972;12.286;2022-11-24T07:49:21;100220.72;;;2.58;100.00
64827;BME280;51265;53.972;12.286;2022-11-24T07:51:47;100230.97;;;2.50;100.00
64827;BME280;51265;53.972;12.286;2022-11-24T07:54:13;100220.94;;;2.51;100.00
64827;BME280;51265;53.972;12.286;2022-11-24T07:56:38;100226.66;;;2.55;100.00
64827;BME280;51265;53.972;12.286;2022-11-24T07:59:04;100224.00;;;2.60;100.00
64827;BME280;51265;53.972;12.286;2022-11-24T08:01:31;100236.63;;;2.71;100.00
64827;BME280;51265;53.972;12.286;2022-11-24T08:03:57;100228.81;;;2.80;100.00
64827;BME280;51265;53.972;12.286;2022-11-24T08:06:22;100224.31;;;2.90;100.00
64827;BME280;51265;53.972;12.286;2022-11-24T08:08:48;100228.66;;;2.91;100.00
64827;BME280;51265;53.972;12.286;2022-11-24T08:11:16;100236.34;;;2.99;100.00
64827;BME280;51265;53.972;12.286;2022-11-24T08:13:43;100234.44;;;3.00;100.00
64827;BME280;51265;53.972;12.286;2022-11-24T08:16:14;100232.63;;;3.06;100.00
64827;BME280;51265;53.972;12.286;2022-11-24T08:18:41;100232.06;;;3.09;100.00
64827;BME280;51265;53.972;12.286;2022-11-24T08:21:10;100237.13;;;3.22;100.00
64827;BME280;51265;53.972;12.286;2022-11-24T08:23:37;100232.19;;;3.19;100.00
64827;BME280;51265;53.972;12.286;2022-11-24T08:26:08;100233.31;;;3.23;100.00
64827;BME280;51265;53.972;12.286;2022-11-24T08:28:36;100232.50;;;3.22;100.00
64827;BME280;51265;53.972;12.286;2022-11-24T08:31:10;100227.56;;;3.19;100.00
64827;BME280;51265;53.972;12.286;2022-11-24T08:33:38;100234.13;;;3.23;100.00
64827;BME280;51265;53.972;12.286;2022-11-24T08:36:06;100228.69;;;3.23;100.00
64827;BME280;51265;53.972;12.286;2022-11-24T08:38:33;100228.94;;;3.22;100.00
64827;BME280;51265;53.972;12.286;2022-11-24T08:41:04;100224.56;;;3.21;100.00
64827;BME280;51265;53.972;12.286;2022-11-24T08:43:30;100222.38;;;3.18;100.00
64827;BME280;51265;53.972;12.286;2022-11-24T08:46:01;100220.13;;;3.10;100.00
64827;BME280;51265;53.972;12.286;2022-11-24T08:48:28;100222.31;;;3.13;100.00
64827;BME280;51265;53.972;12.286;2022-11-24T08:51:16;100219.59;;;3.13;100.00
64827;BME280;51265;53.972;12.286;2022-11-24T08:53:42;100221.25;;;3.14;100.00
64827;BME280;51265;53.972;12.286;2022-11-24T08:56:10;100222.66;;;3.21;100.00
64827;BME280;51265;53.972;12.286;2022-11-24T08:58:36;100224.84;;;3.19;100.00
64827;BME280;51265;53.972;12.286;2022-11-24T09:01:04;100226.50;;;3.25;100.00
64827;BME280;51265;53.972;12.286;2022-11-24T09:03:30;100226.50;;;3.25;100.00
64827;BME280;51265;53.972;12.286;2022-11-24T09:05:56;100225.19;;;3.28;100.00
64827;BME280;51265;53.972;12.286;2022-11-24T09:08:23;100233.84;;;3.25;100.00
64827;BME280;51265;53.972;12.286;2022-11-24T09:10:48;100234.44;;;3.27;100.00
64827;BME280;51265;53.972;12.286;2022-11-24T09:13:15;100233.34;;;3.28;100.00
64827;BME280;51265;53.972;12.286;2022-11-24T09:15:41;100238.78;;;3.28;100.00
64827;BME280;51265;53.972;12.286;2022-11-24T09:18:06;100239.91;;;3.32;100.00
64827;BME280;51265;53.972;12.286;2022-11-24T09:20:32;100243.72;;;3.31;100.00
64827;BME280;51265;53.972;12.286;2022-11-24T09:22:58;100244.88;;;3.40;100.00
64827;BME280;51265;53.972;12.286;2022-11-24T09:25:24;100241.66;;;3.48;100.00
64827;BME280;51265;53.972;12.286;2022-11-24T09:27:50;100246.06;;;3.55;100.00
64827;BME280;51265;53.972;12.286;2022-11-24T09:30:16;100252.09;;;3.62;100.00
64827;BME280;51265;53.972;12.286;2022-11-24T09:32:42;100249.19;;;3.73;100.00
64827;BME280;51265;53.972;12.286;2022-11-24T09:35:08;100247.56;;;3.72;100.00
64827;BME280;51265;53.972;12.286;2022-11-24T09:37:33;100248.41;;;3.78;100.00
64827;BME280;51265;53.972;12.286;2022-11-24T09:40:00;100250.31;;;3.78;100.00
64827;BME280;51265;53.972;12.286;2022-11-24T09:42:54;100251.44;;;3.82;100.00
64827;BME280;51265;53.972;12.286;2022-11-24T09:45:50;100251.44;;;3.82;100.00
64827;BME280;51265;53.972;12.286;2022-11-24T09:48:30;100252.75;;;3.79;100.00
64827;BME280;51265;53.972;12.286;2022-11-24T09:51:02;100244.91;;;3.88;100.00
64827;BME280;51265;53.972;12.286;2022-11-24T09:53:36;100253.41;;;3.96;100.00
64827;BME280;51265;53.972;12.286;2022-11-24T09:56:15;100241.94;;;3.89;100.00
64827;BME280;51265;53.972;12.286;2022-11-24T10:01:21;100251.44;;;3.82;100.00
64827;BME280;51265;53.972;12.286;2022-11-24T10:03:50;100248.13;;;3.80;100.00
64827;BME280;51265;53.972;12.286;2022-11-24T10:06:25;100240.78;;;3.80;100.00
64827;BME280;51265;53.972;12.286;2022-11-24T10:09:12;100248.19;;;3.85;100.00
64827;BME280;51265;53.972;12.286;2022-11-24T10:11:57;100246.28;;;3.85;100.00
64827;BME280;51265;53.972;12.286;2022-11-24T10:26:19;100258.78;;;3.81;100.00
64827;BME280;51265;53.972;12.286;2022-11-24T10:28:55;100255.47;;;3.74;100.00
64827;BME280;51265;53.972;12.286;2022-11-24T10:31:30;100261.72;;;3.74;100.00
64827;BME280;51265;53.972;12.286;2022-11-24T10:34:02;100261.41;;;3.71;100.00
64827;BME280;51265;53.972;12.286;2022-11-24T10:36:37;100255.16;;;3.70;100.00
64827;BME280;51265;53.972;12.286;2022-11-24T10:39:14;100266.88;;;3.71;100.00
64827;BME280;51265;53.972;12.286;2022-11-24T10:41:55;100264.19;;;3.76;100.00
64827;BME280;51265;53.972;12.286;2022-11-24T10:44:21;100268.63;;;3.92;100.00
64827;BME280;51265;53.972;12.286;2022-11-24T10:46:47;100275.75;;;3.93;100.00
64827;BME280;51265;53.972;12.286;2022-11-24T10:49:24;100270.81;;;3.90;100.00
64827;BME280;51265;53.972;12.286;2022-11-24T10:52:09;100266.47;;;3.94;100.00
64827;BME280;51265;53.972;12.286;2022-11-24T10:54:52;100266.22;;;4.01;100.00
64827;BME280;51265;53.972;12.286;2022-11-24T10:57:29;100265.41;;;4.00;100.00
64827;BME280;51265;53.972;12.286;2022-11-24T10:59:55;100269.25;;;4.05;100.00
64827;BME280;51265;53.972;12.286;2022-11-24T11:02:29;100266.53;;;4.05;100.00
64827;BME280;51265;53.972;12.286;2022-11-24T11:04:55;100258.94;;;4.07;100.00
64827;BME280;51265;53.972;12.286;2022-11-24T11:07:24;100265.50;;;4.11;100.00
64827;BME280;51265;53.972;12.286;2022-11-24T11:10:17;100262.19;;;4.09;100.00
64827;BME280;51265;53.972;12.286;2022-11-24T11:12:43;100268.75;;;4.13;100.00
64827;BME280;51265;53.972;12.286;2022-11-24T11:15:28;100272.63;;;4.22;100.00
64827;BME280;51265;53.972;12.286;2022-11-24T11:17:56;100272.41;;;4.34;100.00
64827;BME280;51265;53.972;12.286;2022-11-24T11:20:31;100268.41;;;4.52;100.00
64827;BME280;51265;53.972;12.286;2022-11-24T11:22:59;100270.63;;;4.65;100.00
64827;BME280;51265;53.972;12.286;2022-11-24T11:25:32;100273.66;;;4.79;100.00
64827;BME280;51265;53.972;12.286;2022-11-24T11:28:19;100259.47;;;4.87;100.00
64827;BME280;51265;53.972;12.286;2022-11-24T11:30:57;100273.94;;;4.87;100.00
64827;BME280;51265;53.972;12.286;2022-11-24T11:33:29;100263.03;;;4.87;100.00
64827;BME280;51265;53.972;12.286;2022-11-24T11:35:56;100264.66;;;4.78;100.00
64827;BME280;51265;53.972;12.286;2022-11-24T11:38:24;100267.91;;;4.80;100.00
64827;BME280;51265;53.972;12.286;2022-11-24T11:40:52;100264.94;;;4.82;100.00
64827;BME280;51265;53.972;12.286;2022-11-24T11:43:24;100262.75;;;4.84;100.00
64827;BME280;51265;53.972;12.286;2022-11-24T11:46:02;100255.94;;;4.86;100.00
64827;BME280;51265;53.972;12.286;2022-11-24T11:48:34;100259.19;;;4.78;100.00
64827;BME280;51265;53.972;12.286;2022-11-24T11:51:25;100261.91;;;4.73;100.00
64827;BME280;51265;53.972;12.286;2022-11-24T11:54:11;100259.44;;;4.71;100.00
64827;BME280;51265;53.972;12.286;2022-11-24T11:56:43;100261.63;;;4.69;100.00
64827;BME280;51265;53.972;12.286;2022-11-24T11:59:17;100270.06;;;4.68;100.00
64827;BME280;51265;53.972;12.286;2022-11-24T12:04:55;100263.56;;;4.74;100.00
64827;BME280;51265;53.972;12.286;2022-11-24T12:08:01;100272.25;;;4.66;100.00
64827;BME280;51265;53.972;12.286;2022-11-24T12:10:40;100274.41;;;4.59;100.00
64827;BME280;51265;53.972;12.286;2022-11-24T12:19:23;100280.16;;;4.67;100.00
64827;BME280;51265;53.972;12.286;2022-11-24T12:22:19;100280.50;;;4.81;100.00
64827;BME280;51265;53.972;12.286;2022-11-24T12:24:56;100283.19;;;4.76;100.00
64827;BME280;51265;53.972;12.286;2022-11-24T12:28:00;100289.22;;;4.78;100.00
64827;BME280;51265;53.972;12.286;2022-11-24T12:33:43;100281.84;;;4.79;100.00
64827;BME280;51265;53.972;12.286;2022-11-24T12:36:55;100289.19;;;4.73;100.00
64827;BME280;51265;53.972;12.286;2022-11-24T12:42:20;100286.69;;;4.61;100.00
64827;BME280;51265;53.972;12.286;2022-11-24T12:45:03;100283.69;;;4.58;100.00
64827;BME280;51265;53.972;12.286;2022-11-24T12:47:56;100292.38;;;4.55;100.00
64827;BME280;51265;53.972;12.286;2022-11-24T12:50:30;100290.22;;;4.57;100.00
64827;BME280;51265;53.972;12.286;2022-11-24T12:53:13;100288.31;;;4.52;100.00
64827;BME280;51265;53.972;12.286;2022-11-24T12:55:41;100291.88;;;4.58;100.00
64827;BME280;51265;53.972;12.286;2022-11-24T12:58:14;100298.94;;;4.59;100.00
64827;BME280;51265;53.972;12.286;2022-11-24T13:01:15;100299.75;;;4.54;100.00
64827;BME280;51265;53.972;12.286;2022-11-24T13:04:23;100295.13;;;4.60;100.00
64827;BME280;51265;53.972;12.286;2022-11-24T13:07:14;100305.22;;;4.54;100.00
64827;BME280;51265;53.972;12.286;2022-11-24T13:13:02;100306.59;;;4.52;100.00
64827;BME280;51265;53.972;12.286;2022-11-24T13:15:31;100307.66;;;4.50;100.00
64827;BME280;51265;53.972;12.286;2022-11-24T13:17:58;100310.38;;;4.50;100.00
64827;BME280;51265;53.972;12.286;2022-11-24T13:20:29;100313.66;;;4.47;100.00
64827;BME280;51265;53.972;12.286;2022-11-24T13:23:01;100316.91;;;4.49;100.00
64827;BME280;51265;53.972;12.286;2022-11-24T13:25:29;100314.75;;;4.52;100.00
64827;BME280;51265;53.972;12.286;2022-11-24T13:28:00;100328.41;;;4.52;100.00
64827;BME280;51265;53.972;12.286;2022-11-24T13:35:36;100339.34;;;4.67;100.00
64827;BME280;51265;53.972;12.286;2022-11-24T13:38:02;100346.44;;;4.68;100.00
64827;BME280;51265;53.972;12.286;2022-11-24T13:47:01;100355.13;;;4.55;100.00